Baie De Seine — FISL — position and weather

sailwx.info

Track history (hours):
 
Tides and Currents Weather Stations Pressure Air Temp Water Temp Dewpoint Dewpoint Depression Visibility Wind Speed Wind Dir Waves Ship Positions

Baie De Seine

Last reported at 2017-Nov-23 16:28 UTC. Time now 2017-Nov-23 16:45 UTC.
Position N 49°50' W 002°45'.

Length 199 m; draft 6 m.

Type: Ship. MMSI: 226338000.

Date/timePositionNaut miles runAvg speedWind from/ knotsBaromVisibWave heightAir tempDewpointWater temp
2017-Nov-23 16:28N 49°50' W 002°45'8019.7
2017-Nov-23 12:25N 48°57' W 004°17'819.7
2017-Nov-23 12:00N 48°51' W 004°26'919.5
2017-Nov-23 11:30N 48°44' W 004°37'1019.3
2017-Nov-23 11:01N 48°37' W 004°47'918.2
2017-Nov-23 10:30N 48°29' W 004°51'714.9
2017-Nov-23 10:00N 48°21' W 004°49'917.6
2017-Nov-23 09:31N 48°13' W 004°45'1019.2
2017-Nov-23 09:01N 48°03' W 004°46'816.8
2017-Nov-23 08:31N 47°55' W 004°44'1019.5
2017-Nov-23 08:00N 47°45' W 004°45'1019.6
2017-Nov-23 07:30N 47°35' W 004°46'  
2017-Nov-19 19:40N 44°23' W 004°01'319.6
2017-Nov-19 19:30N 44°20' W 004°00'1419.7
2017-Nov-19 18:47N 44°06' W 003°56'620.0
2017-Nov-19 18:30N 44°00' W 003°54'1020.0
2017-Nov-19 18:00N 43°51' W 003°51'1019.6
2017-Nov-19 17:30N 43°41' W 003°48'1020.3
2017-Nov-19 17:00N 43°31' W 003°45'4 8.7
2017-Nov-19 16:31N 43°27' W 003°48'0 0.1
2017-Nov-19 16:00N 43°27' W 003°48'0 0.0
2017-Nov-19 15:31N 43°27' W 003°48'0 0.0
2017-Nov-19 15:00N 43°27' W 003°48'0 0.0
2017-Nov-19 14:30N 43°27' W 003°48'0 0.0
2017-Nov-19 14:00N 43°27' W 003°48'0 0.0
2017-Nov-19 13:30N 43°27' W 003°48'0 0.9
2017-Nov-19 13:01N 43°27' W 003°48'714.0
2017-Nov-19 12:30N 43°34' W 003°47'918.7
2017-Nov-19 12:00N 43°44' W 003°49'1018.3
2017-Nov-19 11:29N 43°53' W 003°52'918.7
2017-Nov-19 11:00N 44°02' W 003°55'918.5
2017-Nov-19 10:30N 44°11' W 003°57'2118.7
2017-Nov-19 09:22N 44°32' W 004°04'5518.7
2017-Nov-19 06:24N 45°26' W 004°20'818.5
2017-Nov-19 05:59N 45°33' W 004°23'2018.5
2017-Nov-19 04:55N 45°53' W 004°29'1319.0
2017-Nov-19 04:15N 46°05' W 004°32'518.7
2017-Nov-19 04:00N 46°10' W 004°34'1218.7
2017-Nov-19 03:22N 46°21' W 004°37'719.0
2017-Nov-19 03:00N 46°28' W 004°39'1019.4
2017-Nov-19 02:28N 46°38' W 004°42'919.2
2017-Nov-19 02:01N 46°47' W 004°45'918.6
2017-Nov-19 01:30N 46°56' W 004°48'1018.4
2017-Nov-19 00:59N 47°05' W 004°52'817.6
2017-Nov-19 00:30N 47°13' W 004°55'917.5
2017-Nov-19 00:00N 47°22' W 004°57'917.8
2017-Nov-18 23:30N 47°31' W 004°59'917.9
2017-Nov-18 23:00N 47°39' W 005°02'918.1
2017-Nov-18 22:30N 47°48' W 005°05'1018.5
2017-Nov-18 22:00N 47°58' W 005°08'919.0
2017-Nov-18 21:30N 48°07' W 005°10'1019.6
2017-Nov-18 21:01N 48°16' W 005°08'1019.6
2017-Nov-18 20:31N 48°26' W 005°04'917.8
2017-Nov-18 20:00N 48°32' W 004°54'1020.3
2017-Nov-18 19:30N 48°40' W 004°44'1019.6
2017-Nov-18 19:00N 48°47' W 004°34'1018.9
2017-Nov-18 18:30N 48°54' W 004°24'918.8
2017-Nov-18 18:00N 49°01' W 004°15'1818.2
2017-Nov-18 17:02N 49°14' W 003°56'117.9
2017-Nov-18 16:57N 49°15' W 003°55'918.0
2017-Nov-18 16:28N 49°22' W 003°47'1718.2
2017-Nov-18 15:32N 49°34' W 003°29'918.5
2017-Nov-18 15:02N 49°42' W 003°21'119.7
2017-Nov-18 15:00N 49°42' W 003°20'2020.0
2017-Nov-18 14:01N 49°56' W 002°58'022.2
2017-Nov-18 14:00N 49°56' W 002°57'1121.8
2017-Nov-18 13:29N 50°00' W 002°41'3322.2
2017-Nov-18 11:59N 50°16' W 001°55'2620.6
2017-Nov-18 10:42N 50°29' W 001°19'419.4
2017-Nov-18 10:30N 50°31' W 001°14'1018.1
2017-Nov-18 09:56N 50°39' W 001°04'511.9
2017-Nov-18 09:31N 50°45' W 001°04'4 8.4
2017-Nov-18 09:01N 50°49' W 001°06'0 0.1
2017-Nov-18 08:31N 50°49' W 001°06'0 0.0
2017-Nov-18 08:00N 50°49' W 001°06'0 0.0
2017-Nov-18 07:30N 50°49' W 001°06'0 0.0
2017-Nov-18 07:00N 50°49' W 001°06'0 0.0
2017-Nov-18 06:30N 50°49' W 001°06'0 0.0
2017-Nov-18 06:00N 50°49' W 001°06'1 2.8
2017-Nov-18 05:30N 50°47' W 001°07'713.6
2017-Nov-18 05:00N 50°43' W 000°59'917.3
2017-Nov-18 04:30N 50°35' W 000°52'5113.1
2017-Nov-18 00:39N 49°50' W 000°16'213.3
2017-Nov-18 00:30N 49°48' W 000°15'713.7
2017-Nov-18 00:00N 49°43' W 000°09'714.2
2017-Nov-17 23:30N 49°36' W 000°04'2 3.9
2017-Nov-17 23:00N 49°35' W 000°02'0 0.6
2017-Nov-17 22:30N 49°34' W 000°02'2 3.4
2017-Nov-17 22:00N 49°33' W 000°01'4 8.7
2017-Nov-17 21:30N 49°30' E 000°03'2 4.6
2017-Nov-17 21:00N 49°29' E 000°07'0 0.0
2017-Nov-17 20:30N 49°29' E 000°07'0 0.0
2017-Nov-17 20:00N 49°29' E 000°07'0 0.0
2017-Nov-17 19:30N 49°29' E 000°07'0 0.0
2017-Nov-17 19:00N 49°29' E 000°07'0 0.0
2017-Nov-17 18:30N 49°29' E 000°07'0 0.0
2017-Nov-17 18:00N 49°29' E 000°07'0 0.0
2017-Nov-17 17:30N 49°29' E 000°07'0 0.0
2017-Nov-17 17:00N 49°29' E 000°07'0 0.0
2017-Nov-17 16:30N 49°29' E 000°07'0 0.0
2017-Nov-17 16:00N 49°29' E 000°07'0 0.0
2017-Nov-17 15:30N 49°29' E 000°07'0 0.0
2017-Nov-17 15:00N 49°29' E 000°07'0 0.0
2017-Nov-17 14:30N 49°29' E 000°07'0 0.0
2017-Nov-17 14:00N 49°29' E 000°07'0 0.0
2017-Nov-17 13:30N 49°29' E 000°07'0 0.0
2017-Nov-17 13:00N 49°29' E 000°07'0 0.0
2017-Nov-17 12:30N 49°29' E 000°07'0 0.0
2017-Nov-17 12:00N 49°29' E 000°07'0 0.0
2017-Nov-17 11:30N 49°29' E 000°07'0 0.0
2017-Nov-17 11:00N 49°29' E 000°07'0 0.0
2017-Nov-17 10:30N 49°29' E 000°07'0 0.0
2017-Nov-17 10:00N 49°29' E 000°07'0 0.0
2017-Nov-17 09:30N 49°29' E 000°07'0 0.0
2017-Nov-17 09:00N 49°29' E 000°07'0 0.0
2017-Nov-17 08:30N 49°29' E 000°07'0 0.0
2017-Nov-17 08:00N 49°29' E 000°07'0 0.0
2017-Nov-17 07:30N 49°29' E 000°07'4 8.9
2017-Nov-17 07:01N 49°31' E 000°01'815.0
2017-Nov-17 06:31N 49°38' W 000°05'713.3
2017-Nov-17 06:00N 49°44' W 000°09'611.7
2017-Nov-17 05:30N 49°49' W 000°14'611.6
2017-Nov-17 05:00N 49°54' W 000°17'611.1
2017-Nov-17 04:30N 49°59' W 000°21'510.6
2017-Nov-17 04:00N 50°04' W 000°26'3011.4
2017-Nov-17 01:25N 50°30' W 000°48'511.7
2017-Nov-17 01:00N 50°34' W 000°51'611.3
2017-Nov-17 00:30N 50°39' W 000°56'611.9
2017-Nov-17 00:00N 50°43' W 001°02'510.9
2017-Nov-16 23:30N 50°48' W 001°07'1 2.0
2017-Nov-16 22:59N 50°49' W 001°06'0 0.0
2017-Nov-16 22:29N 50°49' W 001°06'0 0.0
2017-Nov-16 21:59N 50°49' W 001°06'0 0.0
2017-Nov-16 21:29N 50°49' W 001°06'0 0.0
2017-Nov-16 21:00N 50°49' W 001°06'0 0.3
2017-Nov-16 20:30N 50°49' W 001°06'510.4
2017-Nov-16 20:01N 50°44' W 001°04'816.0
2017-Nov-16 19:30N 50°36' W 001°07'1320.9
2017-Nov-16 18:53N 50°26' W 001°21'1621.9
2017-Nov-16 18:10N 50°16' W 001°39'421.2
2017-Nov-16 17:59N 50°14' W 001°44'1521.3
2017-Nov-16 17:18N 50°05' W 002°03'1522.0
2017-Nov-16 16:36N 49°57' W 002°23'621.7
2017-Nov-16 16:20N 49°55' W 002°32'821.3
2017-Nov-16 15:58N 49°53' W 002°43'8320.4
2017-Nov-16 11:53N 48°56' W 004°17'820.4
2017-Nov-16 11:30N 48°51' W 004°25'1020.2
2017-Nov-16 11:00N 48°44' W 004°37'1020.2
2017-Nov-16 10:30N 48°37' W 004°48'1019.9
2017-Nov-16 10:00N 48°29' W 004°58'714.6
2017-Nov-16 09:31N 48°24' W 005°05'1019.6
2017-Nov-16 09:00N 48°14' W 005°08'1019.1
2017-Nov-16 08:30N 48°05' W 005°09'918.5
2017-Nov-16 08:00N 47°56' W 005°06'918.9
2017-Nov-16 07:30N 47°47' W 005°01'1018.8
2017-Nov-16 07:00N 47°38' W 004°59'918.9
2017-Nov-16 06:30N 47°29' W 004°55'1019.7
2017-Nov-16 06:00N 47°19' W 004°49'1019.8
2017-Nov-16 05:30N 47°10' W 004°46'1019.7
2017-Nov-16 05:01N 47°00' W 004°42'1119.9
2017-Nov-16 04:28N 46°50' W 004°38'18719.0
2017-Nov-15 18:38N 43°52' W 003°17'319.8
2017-Nov-15 18:31N 43°50' W 003°15'1020.0
2017-Nov-15 18:00N 43°40' W 003°11'1020.0
2017-Nov-15 17:30N 43°30' W 003°08'918.5
2017-Nov-15 17:00N 43°22' W 003°03'1 1.9
2017-Nov-15 16:30N 43°21' W 003°04'0 0.0
2017-Nov-15 16:00N 43°21' W 003°04'0 0.0
2017-Nov-15 15:27N 43°21' W 003°04'0 0.0
2017-Nov-15 15:00N 43°21' W 003°04'0 0.0
2017-Nov-15 14:30N 43°21' W 003°04'0 0.0
2017-Nov-15 14:00N 43°21' W 003°04'0 0.0
2017-Nov-15 13:30N 43°21' W 003°04'0 0.5
2017-Nov-15 13:00N 43°21' W 003°04'611.4
2017-Nov-15 12:30N 43°27' W 003°07'918.9
2017-Nov-15 12:00N 43°36' W 003°11'918.9
2017-Nov-15 11:30N 43°45' W 003°15'1019.6
2017-Nov-15 11:00N 43°54' W 003°19'1019.5
2017-Nov-15 10:30N 44°03' W 003°23'16819.1
2017-Nov-15 01:42N 46°44' W 004°34'619.2
2017-Nov-15 01:24N 46°50' W 004°36'1819.0
2017-Nov-15 00:26N 47°07' W 004°44'919.1
2017-Nov-14 23:58N 47°16' W 004°48'919.8
2017-Nov-14 23:30N 47°24' W 004°52'1120.2
2017-Nov-14 22:58N 47°35' W 004°57'920.2
2017-Nov-14 22:30N 47°43' W 005°02'1019.8
2017-Nov-14 22:00N 47°53' W 005°07'1019.3
2017-Nov-14 21:30N 48°02' W 005°12'1020.0
2017-Nov-14 21:00N 48°12' W 005°11'1020.1
2017-Nov-14 20:30N 48°21' W 005°07'815.8
2017-Nov-14 20:00N 48°28' W 004°60'1019.8
2017-Nov-14 19:30N 48°35' W 004°50'1221.4
2017-Nov-14 18:56N 48°44' W 004°38'920.8
2017-Nov-14 18:29N 48°51' W 004°28'1120.4
2017-Nov-14 17:57N 48°58' W 004°15'1020.0
2017-Nov-14 17:25N 49°05' W 004°04'819.4
2017-Nov-14 16:59N 49°11' W 003°54'1218.9
2017-Nov-14 16:22N 49°20' W 003°42'818.6
2017-Nov-14 15:58N 49°25' W 003°34'918.0
2017-Nov-14 15:29N 49°32' W 003°26'917.8
2017-Nov-14 14:58N 49°40' W 003°19'918.0
2017-Nov-14 14:29N 49°46' W 003°09'1319.4
2017-Nov-14 13:49N 49°56' W 002°56'719.3
2017-Nov-14 13:28N 49°58' W 002°46'2821.1
2017-Nov-14 12:09N 50°07' W 002°06'421.4
2017-Nov-14 11:57N 50°09' W 001°60'1021.4
2017-Nov-14 11:30N 50°15' W 001°48'2720.2
2017-Nov-14 10:10N 50°31' W 001°14'320.6
2017-Nov-14 10:00N 50°33' W 001°10'918.7
2017-Nov-14 09:31N 50°41' W 001°03'714.5
2017-Nov-14 09:01N 50°48' W 001°07'1 1.9
2017-Nov-14 08:30N 50°49' W 001°06'0 0.0
2017-Nov-14 08:00N 50°49' W 001°06'0 0.0
2017-Nov-14 07:30N 50°49' W 001°06'0 0.0
2017-Nov-14 07:00N 50°49' W 001°06'0 0.0
2017-Nov-14 06:30N 50°49' W 001°06'0 0.0
2017-Nov-14 06:00N 50°49' W 001°06'0 0.0
2017-Nov-14 05:30N 50°49' W 001°06'0 0.0
2017-Nov-14 05:00N 50°49' W 001°06'0 0.0
2017-Nov-14 04:30N 50°49' W 001°06'0 0.0
2017-Nov-14 04:00N 50°49' W 001°06'0 0.0
2017-Nov-14 03:30N 50°49' W 001°06'0 0.0
2017-Nov-14 03:00N 50°49' W 001°06'0 0.0
2017-Nov-14 02:30N 50°49' W 001°06'0 0.0
2017-Nov-14 02:00N 50°49' W 001°06'0 0.0
2017-Nov-14 01:30N 50°49' W 001°06'0 0.0
2017-Nov-14 01:00N 50°49' W 001°06'0 0.0
2017-Nov-14 00:30N 50°49' W 001°06'0 0.0
2017-Nov-14 00:00N 50°49' W 001°06'0 0.0
2017-Nov-13 23:30N 50°49' W 001°06'0 0.0
2017-Nov-13 23:00N 50°49' W 001°06'0 0.0
2017-Nov-13 22:30N 50°49' W 001°06'0 0.0
2017-Nov-13 22:01N 50°49' W 001°06'  
Track history (hours):
 
Tides and Currents Weather Stations Pressure Air Temp Water Temp Dewpoint Dewpoint Depression Visibility Wind Speed Wind Dir Waves Ship Positions

Baie De Seine

Last reported at 2017-Nov-23 16:28 UTC. Time now 2017-Nov-23 16:45 UTC.
Position N 49°50' W 002°45'.

Length 199 m; draft 6 m.

Type: Ship. MMSI: 226338000.

Date/timePositionNaut miles runAvg speedWind from/ knotsBaromVisibWave heightAir tempDewpointWater temp
2017-Nov-23 16:28N 49°50' W 002°45'8019.7
2017-Nov-23 12:25N 48°57' W 004°17'819.7
2017-Nov-23 12:00N 48°51' W 004°26'919.5
2017-Nov-23 11:30N 48°44' W 004°37'1019.3
2017-Nov-23 11:01N 48°37' W 004°47'918.2
2017-Nov-23 10:30N 48°29' W 004°51'714.9
2017-Nov-23 10:00N 48°21' W 004°49'917.6
2017-Nov-23 09:31N 48°13' W 004°45'1019.2
2017-Nov-23 09:01N 48°03' W 004°46'816.8
2017-Nov-23 08:31N 47°55' W 004°44'1019.5
2017-Nov-23 08:00N 47°45' W 004°45'1019.6
2017-Nov-23 07:30N 47°35' W 004°46'  
2017-Nov-19 19:40N 44°23' W 004°01'319.6
2017-Nov-19 19:30N 44°20' W 004°00'1419.7
2017-Nov-19 18:47N 44°06' W 003°56'620.0
2017-Nov-19 18:30N 44°00' W 003°54'1020.0
2017-Nov-19 18:00N 43°51' W 003°51'1019.6
2017-Nov-19 17:30N 43°41' W 003°48'1020.3
2017-Nov-19 17:00N 43°31' W 003°45'4 8.7
2017-Nov-19 16:31N 43°27' W 003°48'0 0.1
2017-Nov-19 16:00N 43°27' W 003°48'0 0.0
2017-Nov-19 15:31N 43°27' W 003°48'0 0.0
2017-Nov-19 15:00N 43°27' W 003°48'0 0.0
2017-Nov-19 14:30N 43°27' W 003°48'0 0.0
2017-Nov-19 14:00N 43°27' W 003°48'0 0.0
2017-Nov-19 13:30N 43°27' W 003°48'0 0.9
2017-Nov-19 13:01N 43°27' W 003°48'714.0
2017-Nov-19 12:30N 43°34' W 003°47'918.7
2017-Nov-19 12:00N 43°44' W 003°49'1018.3
2017-Nov-19 11:29N 43°53' W 003°52'918.7
2017-Nov-19 11:00N 44°02' W 003°55'918.5
2017-Nov-19 10:30N 44°11' W 003°57'2118.7
2017-Nov-19 09:22N 44°32' W 004°04'5518.7
2017-Nov-19 06:24N 45°26' W 004°20'818.5
2017-Nov-19 05:59N 45°33' W 004°23'2018.5
2017-Nov-19 04:55N 45°53' W 004°29'1319.0
2017-Nov-19 04:15N 46°05' W 004°32'518.7
2017-Nov-19 04:00N 46°10' W 004°34'1218.7
2017-Nov-19 03:22N 46°21' W 004°37'719.0
2017-Nov-19 03:00N 46°28' W 004°39'1019.4
2017-Nov-19 02:28N 46°38' W 004°42'919.2
2017-Nov-19 02:01N 46°47' W 004°45'918.6
2017-Nov-19 01:30N 46°56' W 004°48'1018.4
2017-Nov-19 00:59N 47°05' W 004°52'817.6
2017-Nov-19 00:30N 47°13' W 004°55'917.5
2017-Nov-19 00:00N 47°22' W 004°57'917.8
2017-Nov-18 23:30N 47°31' W 004°59'917.9
2017-Nov-18 23:00N 47°39' W 005°02'918.1
2017-Nov-18 22:30N 47°48' W 005°05'1018.5
2017-Nov-18 22:00N 47°58' W 005°08'919.0
2017-Nov-18 21:30N 48°07' W 005°10'1019.6
2017-Nov-18 21:01N 48°16' W 005°08'1019.6
2017-Nov-18 20:31N 48°26' W 005°04'917.8
2017-Nov-18 20:00N 48°32' W 004°54'1020.3
2017-Nov-18 19:30N 48°40' W 004°44'1019.6
2017-Nov-18 19:00N 48°47' W 004°34'1018.9
2017-Nov-18 18:30N 48°54' W 004°24'918.8
2017-Nov-18 18:00N 49°01' W 004°15'1818.2
2017-Nov-18 17:02N 49°14' W 003°56'117.9
2017-Nov-18 16:57N 49°15' W 003°55'918.0
2017-Nov-18 16:28N 49°22' W 003°47'1718.2
2017-Nov-18 15:32N 49°34' W 003°29'918.5
2017-Nov-18 15:02N 49°42' W 003°21'119.7
2017-Nov-18 15:00N 49°42' W 003°20'2020.0
2017-Nov-18 14:01N 49°56' W 002°58'022.2
2017-Nov-18 14:00N 49°56' W 002°57'1121.8
2017-Nov-18 13:29N 50°00' W 002°41'3322.2
2017-Nov-18 11:59N 50°16' W 001°55'2620.6
2017-Nov-18 10:42N 50°29' W 001°19'419.4
2017-Nov-18 10:30N 50°31' W 001°14'1018.1
2017-Nov-18 09:56N 50°39' W 001°04'511.9
2017-Nov-18 09:31N 50°45' W 001°04'4 8.4
2017-Nov-18 09:01N 50°49' W 001°06'0 0.1
2017-Nov-18 08:31N 50°49' W 001°06'0 0.0
2017-Nov-18 08:00N 50°49' W 001°06'0 0.0
2017-Nov-18 07:30N 50°49' W 001°06'0 0.0
2017-Nov-18 07:00N 50°49' W 001°06'0 0.0
2017-Nov-18 06:30N 50°49' W 001°06'0 0.0
2017-Nov-18 06:00N 50°49' W 001°06'1 2.8
2017-Nov-18 05:30N 50°47' W 001°07'713.6
2017-Nov-18 05:00N 50°43' W 000°59'917.3
2017-Nov-18 04:30N 50°35' W 000°52'5113.1
2017-Nov-18 00:39N 49°50' W 000°16'213.3
2017-Nov-18 00:30N 49°48' W 000°15'713.7
2017-Nov-18 00:00N 49°43' W 000°09'714.2
2017-Nov-17 23:30N 49°36' W 000°04'2 3.9
2017-Nov-17 23:00N 49°35' W 000°02'0 0.6
2017-Nov-17 22:30N 49°34' W 000°02'2 3.4
2017-Nov-17 22:00N 49°33' W 000°01'4 8.7
2017-Nov-17 21:30N 49°30' E 000°03'2 4.6
2017-Nov-17 21:00N 49°29' E 000°07'0 0.0
2017-Nov-17 20:30N 49°29' E 000°07'0 0.0
2017-Nov-17 20:00N 49°29' E 000°07'0 0.0
2017-Nov-17 19:30N 49°29' E 000°07'0 0.0
2017-Nov-17 19:00N 49°29' E 000°07'0 0.0
2017-Nov-17 18:30N 49°29' E 000°07'0 0.0
2017-Nov-17 18:00N 49°29' E 000°07'0 0.0
2017-Nov-17 17:30N 49°29' E 000°07'0 0.0
2017-Nov-17 17:00N 49°29' E 000°07'0 0.0
2017-Nov-17 16:30N 49°29' E 000°07'0 0.0
2017-Nov-17 16:00N 49°29' E 000°07'0 0.0
2017-Nov-17 15:30N 49°29' E 000°07'0 0.0
2017-Nov-17 15:00N 49°29' E 000°07'0 0.0
2017-Nov-17 14:30N 49°29' E 000°07'0 0.0
2017-Nov-17 14:00N 49°29' E 000°07'0 0.0
2017-Nov-17 13:30N 49°29' E 000°07'0 0.0
2017-Nov-17 13:00N 49°29' E 000°07'0 0.0
2017-Nov-17 12:30N 49°29' E 000°07'0 0.0
2017-Nov-17 12:00N 49°29' E 000°07'0 0.0
2017-Nov-17 11:30N 49°29' E 000°07'0 0.0
2017-Nov-17 11:00N 49°29' E 000°07'0 0.0
2017-Nov-17 10:30N 49°29' E 000°07'0 0.0
2017-Nov-17 10:00N 49°29' E 000°07'0 0.0
2017-Nov-17 09:30N 49°29' E 000°07'0 0.0
2017-Nov-17 09:00N 49°29' E 000°07'0 0.0
2017-Nov-17 08:30N 49°29' E 000°07'0 0.0
2017-Nov-17 08:00N 49°29' E 000°07'0 0.0
2017-Nov-17 07:30N 49°29' E 000°07'4 8.9
2017-Nov-17 07:01N 49°31' E 000°01'815.0
2017-Nov-17 06:31N 49°38' W 000°05'713.3
2017-Nov-17 06:00N 49°44' W 000°09'611.7
2017-Nov-17 05:30N 49°49' W 000°14'611.6
2017-Nov-17 05:00N 49°54' W 000°17'611.1
2017-Nov-17 04:30N 49°59' W 000°21'510.6
2017-Nov-17 04:00N 50°04' W 000°26'3011.4
2017-Nov-17 01:25N 50°30' W 000°48'511.7
2017-Nov-17 01:00N 50°34' W 000°51'611.3
2017-Nov-17 00:30N 50°39' W 000°56'611.9
2017-Nov-17 00:00N 50°43' W 001°02'510.9
2017-Nov-16 23:30N 50°48' W 001°07'1 2.0
2017-Nov-16 22:59N 50°49' W 001°06'0 0.0
2017-Nov-16 22:29N 50°49' W 001°06'0 0.0
2017-Nov-16 21:59N 50°49' W 001°06'0 0.0
2017-Nov-16 21:29N 50°49' W 001°06'0 0.0
2017-Nov-16 21:00N 50°49' W 001°06'0 0.3
2017-Nov-16 20:30N 50°49' W 001°06'510.4
2017-Nov-16 20:01N 50°44' W 001°04'816.0
2017-Nov-16 19:30N 50°36' W 001°07'1320.9
2017-Nov-16 18:53N 50°26' W 001°21'1621.9
2017-Nov-16 18:10N 50°16' W 001°39'421.2
2017-Nov-16 17:59N 50°14' W 001°44'1521.3
2017-Nov-16 17:18N 50°05' W 002°03'1522.0
2017-Nov-16 16:36N 49°57' W 002°23'621.7
2017-Nov-16 16:20N 49°55' W 002°32'821.3
2017-Nov-16 15:58N 49°53' W 002°43'8320.4
2017-Nov-16 11:53N 48°56' W 004°17'820.4
2017-Nov-16 11:30N 48°51' W 004°25'1020.2
2017-Nov-16 11:00N 48°44' W 004°37'1020.2
2017-Nov-16 10:30N 48°37' W 004°48'1019.9
2017-Nov-16 10:00N 48°29' W 004°58'714.6
2017-Nov-16 09:31N 48°24' W 005°05'1019.6
2017-Nov-16 09:00N 48°14' W 005°08'1019.1
2017-Nov-16 08:30N 48°05' W 005°09'918.5
2017-Nov-16 08:00N 47°56' W 005°06'918.9
2017-Nov-16 07:30N 47°47' W 005°01'1018.8
2017-Nov-16 07:00N 47°38' W 004°59'918.9
2017-Nov-16 06:30N 47°29' W 004°55'1019.7
2017-Nov-16 06:00N 47°19' W 004°49'1019.8
2017-Nov-16 05:30N 47°10' W 004°46'1019.7
2017-Nov-16 05:01N 47°00' W 004°42'1119.9
2017-Nov-16 04:28N 46°50' W 004°38'18719.0
2017-Nov-15 18:38N 43°52' W 003°17'319.8
2017-Nov-15 18:31N 43°50' W 003°15'1020.0
2017-Nov-15 18:00N 43°40' W 003°11'1020.0
2017-Nov-15 17:30N 43°30' W 003°08'918.5
2017-Nov-15 17:00N 43°22' W 003°03'1 1.9
2017-Nov-15 16:30N 43°21' W 003°04'0 0.0
2017-Nov-15 16:00N 43°21' W 003°04'0 0.0
2017-Nov-15 15:27N 43°21' W 003°04'0 0.0
2017-Nov-15 15:00N 43°21' W 003°04'0 0.0
2017-Nov-15 14:30N 43°21' W 003°04'0 0.0
2017-Nov-15 14:00N 43°21' W 003°04'0 0.0
2017-Nov-15 13:30N 43°21' W 003°04'0 0.5
2017-Nov-15 13:00N 43°21' W 003°04'611.4
2017-Nov-15 12:30N 43°27' W 003°07'918.9
2017-Nov-15 12:00N 43°36' W 003°11'918.9
2017-Nov-15 11:30N 43°45' W 003°15'1019.6
2017-Nov-15 11:00N 43°54' W 003°19'1019.5
2017-Nov-15 10:30N 44°03' W 003°23'16819.1
2017-Nov-15 01:42N 46°44' W 004°34'619.2
2017-Nov-15 01:24N 46°50' W 004°36'1819.0
2017-Nov-15 00:26N 47°07' W 004°44'919.1
2017-Nov-14 23:58N 47°16' W 004°48'919.8
2017-Nov-14 23:30N 47°24' W 004°52'1120.2
2017-Nov-14 22:58N 47°35' W 004°57'920.2
2017-Nov-14 22:30N 47°43' W 005°02'1019.8
2017-Nov-14 22:00N 47°53' W 005°07'1019.3
2017-Nov-14 21:30N 48°02' W 005°12'1020.0
2017-Nov-14 21:00N 48°12' W 005°11'1020.1
2017-Nov-14 20:30N 48°21' W 005°07'815.8
2017-Nov-14 20:00N 48°28' W 004°60'1019.8
2017-Nov-14 19:30N 48°35' W 004°50'1221.4
2017-Nov-14 18:56N 48°44' W 004°38'920.8
2017-Nov-14 18:29N 48°51' W 004°28'1120.4
2017-Nov-14 17:57N 48°58' W 004°15'1020.0
2017-Nov-14 17:25N 49°05' W 004°04'819.4
2017-Nov-14 16:59N 49°11' W 003°54'1218.9
2017-Nov-14 16:22N 49°20' W 003°42'818.6
2017-Nov-14 15:58N 49°25' W 003°34'918.0
2017-Nov-14 15:29N 49°32' W 003°26'917.8
2017-Nov-14 14:58N 49°40' W 003°19'918.0
2017-Nov-14 14:29N 49°46' W 003°09'1319.4
2017-Nov-14 13:49N 49°56' W 002°56'719.3
2017-Nov-14 13:28N 49°58' W 002°46'2821.1
2017-Nov-14 12:09N 50°07' W 002°06'421.4
2017-Nov-14 11:57N 50°09' W 001°60'1021.4
2017-Nov-14 11:30N 50°15' W 001°48'2720.2
2017-Nov-14 10:10N 50°31' W 001°14'320.6
2017-Nov-14 10:00N 50°33' W 001°10'918.7
2017-Nov-14 09:31N 50°41' W 001°03'714.5
2017-Nov-14 09:01N 50°48' W 001°07'1 1.9
2017-Nov-14 08:30N 50°49' W 001°06'0 0.0
2017-Nov-14 08:00N 50°49' W 001°06'0 0.0
2017-Nov-14 07:30N 50°49' W 001°06'0 0.0
2017-Nov-14 07:00N 50°49' W 001°06'0 0.0
2017-Nov-14 06:30N 50°49' W 001°06'0 0.0
2017-Nov-14 06:00N 50°49' W 001°06'0 0.0
2017-Nov-14 05:30N 50°49' W 001°06'0 0.0
2017-Nov-14 05:00N 50°49' W 001°06'0 0.0
2017-Nov-14 04:30N 50°49' W 001°06'0 0.0
2017-Nov-14 04:00N 50°49' W 001°06'0 0.0
2017-Nov-14 03:30N 50°49' W 001°06'0 0.0
2017-Nov-14 03:00N 50°49' W 001°06'0 0.0
2017-Nov-14 02:30N 50°49' W 001°06'0 0.0
2017-Nov-14 02:00N 50°49' W 001°06'0 0.0
2017-Nov-14 01:30N 50°49' W 001°06'0 0.0
2017-Nov-14 01:00N 50°49' W 001°06'0 0.0
2017-Nov-14 00:30N 50°49' W 001°06'0 0.0
2017-Nov-14 00:00N 50°49' W 001°06'0 0.0
2017-Nov-13 23:30N 50°49' W 001°06'0 0.0
2017-Nov-13 23:00N 50°49' W 001°06'0 0.0
2017-Nov-13 22:30N 50°49' W 001°06'0 0.0
2017-Nov-13 22:01N 50°49' W 001°06'  

Dump ship's entire track history